createdAt,value
2022-08-03T00:00:24.940Z,68.34
2022-08-03T00:04:34.110Z,68.49
2022-08-03T00:08:40.379Z,68.82
2022-08-03T00:12:43.761Z,68.47
2022-08-03T00:16:47.411Z,68.98
2022-08-03T00:20:52.051Z,68.59
2022-08-03T00:24:55.041Z,68.85
2022-08-03T00:28:58.605Z,69.27
2022-08-03T00:33:01.916Z,69.07
2022-08-03T00:37:06.966Z,69.22
2022-08-03T00:41:12.889Z,69.36
2022-08-03T00:45:20.445Z,68.98
2022-08-03T00:49:23.578Z,68.18
2022-08-03T00:53:29.631Z,68.05
2022-08-03T00:57:34.069Z,68.51
2022-08-03T01:01:37.931Z,68.99
2022-08-03T01:05:48.748Z,68.31
2022-08-03T01:10:04.729Z,68.18
2022-08-03T01:14:19.170Z,69.05
2022-08-03T01:18:30.849Z,70.07
2022-08-03T01:23:04.677Z,68.30
2022-08-03T01:27:14.297Z,70.84
2022-08-03T01:31:26.213Z,71.59
2022-08-03T01:35:38.355Z,71.92
2022-08-03T01:39:44.717Z,71.79
2022-08-03T01:44:28.359Z,71.17
2022-08-03T01:48:19.157Z,70.60
2022-08-03T01:52:22.917Z,71.24
2022-08-03T01:56:28.131Z,71.42
2022-08-03T02:00:33.076Z,71.65
2022-08-03T02:04:40.486Z,70.47
2022-08-03T02:08:46.348Z,71.31
2022-08-03T02:12:51.437Z,71.34
2022-08-03T02:16:56.598Z,71.23
2022-08-03T02:21:05.492Z,70.98
2022-08-03T02:25:16.421Z,71.46
2022-08-03T02:29:38.809Z,71.01
2022-08-03T02:33:47.278Z,70.92
2022-08-03T02:38:00.071Z,71.13
2022-08-03T02:42:03.765Z,70.42
2022-08-03T02:46:09.955Z,71.62
2022-08-03T02:50:16.738Z,71.74
2022-08-03T02:54:23.701Z,69.68
2022-08-03T02:58:27.609Z,70.61
2022-08-03T03:02:32.162Z,70.64
2022-08-03T03:06:37.567Z,71.16
2022-08-03T03:10:45.628Z,70.79
2022-08-03T03:14:49.248Z,71.80
2022-08-03T03:18:52.951Z,72.16
2022-08-03T03:22:57.999Z,72.11
2022-08-03T03:27:06.413Z,72.12
2022-08-03T03:31:11.037Z,72.02
2022-08-03T03:35:17.228Z,71.65
2022-08-03T03:39:20.809Z,71.80
2022-08-03T03:43:26.140Z,71.29
2022-08-03T03:47:32.342Z,72.00
2022-08-03T03:51:36.872Z,72.57
2022-08-03T03:55:59.275Z,72.14
2022-08-03T04:00:07.155Z,72.56
2022-08-03T04:04:24.052Z,72.73
2022-08-03T04:08:44.794Z,73.09
2022-08-03T04:12:55.021Z,73.66
2022-08-03T04:17:02.721Z,73.81
2022-08-03T04:21:11.842Z,74.02
2022-08-03T04:25:20.036Z,73.29
2022-08-03T04:29:25.709Z,72.77
2022-08-03T04:33:35.016Z,73.05
2022-08-03T04:37:41.697Z,73.55
2022-08-03T04:42:07.311Z,73.79
2022-08-03T04:46:10.927Z,73.76
2022-08-03T04:50:21.231Z,73.59
2022-08-03T04:54:24.933Z,73.42
2022-08-03T04:58:28.968Z,73.12
2022-08-03T05:02:34.292Z,72.88
2022-08-03T05:06:47.921Z,72.99
2022-08-03T05:10:52.180Z,74.13
2022-08-03T05:14:56.541Z,73.45
2022-08-03T05:18:59.530Z,72.57
2022-08-03T05:23:04.702Z,73.19
2022-08-03T05:27:08.264Z,72.70
2022-08-03T05:31:12.279Z,72.86
2022-08-03T05:36:00.903Z,72.85
2022-08-03T05:39:40.896Z,72.42
2022-08-03T05:43:44.685Z,72.32
2022-08-03T05:47:48.214Z,72.62
2022-08-03T05:52:00.013Z,72.70
2022-08-03T05:56:14.466Z,72.21
2022-08-03T06:00:20.207Z,72.34
2022-08-03T06:04:24.970Z,72.59
2022-08-03T06:08:28.725Z,71.76
2022-08-03T06:12:36.111Z,71.49
2022-08-03T06:16:39.664Z,71.46
2022-08-03T06:20:43.143Z,71.16
2022-08-03T06:24:53.471Z,70.16
2022-08-03T06:28:58.638Z,70.24
2022-08-03T06:33:02.771Z,70.24
2022-08-03T06:37:06.235Z,69.11
2022-08-03T06:41:09.730Z,69.49
2022-08-03T06:45:14.752Z,69.01
2022-08-03T06:49:18.441Z,68.04
2022-08-03T06:53:21.671Z,67.18
2022-08-03T06:57:25.420Z,65.97
2022-08-03T07:01:29.812Z,64.19
2022-08-03T07:05:35.768Z,61.24
2022-08-03T07:09:38.811Z,59.59
2022-08-03T07:13:45.208Z,57.95
2022-08-03T07:17:49.692Z,56.04
2022-08-03T07:21:53.664Z,54.90
2022-08-03T07:25:56.927Z,53.94
2022-08-03T07:30:01.415Z,51.38
2022-08-03T07:34:09.629Z,50.97
2022-08-03T07:38:12.706Z,49.47
2022-08-03T07:42:16.317Z,49.53
2022-08-03T07:46:19.533Z,48.72
2022-08-03T07:50:25.100Z,47.52
2022-08-03T07:54:28.785Z,46.48
2022-08-03T07:58:32.269Z,45.53
2022-08-03T08:02:35.413Z,45.08
2022-08-03T08:06:40.290Z,44.44
2022-08-03T08:10:58.246Z,43.50
2022-08-03T08:15:02.634Z,43.38
2022-08-03T08:19:05.631Z,42.14
2022-08-03T08:23:41.545Z,42.03
2022-08-03T08:28:31.930Z,41.38
2022-08-03T08:31:58.420Z,42.07
2022-08-03T08:36:02.183Z,41.84
2022-08-03T08:40:09.942Z,41.77
2022-08-03T08:44:13.084Z,41.26
2022-08-03T08:48:20.143Z,40.81
2022-08-03T08:52:31.814Z,40.55
2022-08-03T08:56:37.590Z,44.42
2022-08-03T09:00:40.753Z,40.33
2022-08-03T09:04:45.984Z,38.19
2022-08-03T09:08:49.559Z,39.63
2022-08-03T09:12:54.641Z,38.76
2022-08-03T09:17:01.618Z,37.02
2022-08-03T09:21:30.649Z,39.46
2022-08-03T09:25:36.608Z,37.79
2022-08-03T09:29:43.770Z,36.71
2022-08-03T09:33:50.651Z,37.14
2022-08-03T09:38:13.556Z,38.69
2022-08-03T09:42:23.717Z,36.55
2022-08-03T09:46:32.217Z,33.49
2022-08-03T09:50:57.106Z,37.27
2022-08-03T09:56:32.688Z,35.26
2022-08-03T09:59:41.177Z,33.36
2022-08-03T10:04:04.390Z,38.00
2022-08-03T10:08:16.812Z,35.69
2022-08-03T10:12:20.090Z,38.84
2022-08-03T10:16:25.494Z,32.91
2022-08-03T10:20:31.083Z,34.05
2022-08-03T10:24:37.906Z,32.30
2022-08-03T10:28:45.286Z,33.59
2022-08-03T10:32:58.362Z,32.66
2022-08-03T10:37:11.449Z,33.29
2022-08-03T10:41:15.601Z,31.34
2022-08-03T10:45:27.256Z,31.03
2022-08-03T10:49:34.731Z,30.15
2022-08-03T10:53:44.140Z,30.73
2022-08-03T10:57:59.260Z,30.28
2022-08-03T11:02:02.599Z,28.58
2022-08-03T11:06:19.151Z,30.95
2022-08-03T11:10:33.384Z,32.37
2022-08-03T11:14:48.775Z,30.67
2022-08-03T11:19:00.495Z,29.74
2022-08-03T11:23:03.853Z,32.06
2022-08-03T11:27:25.788Z,31.67
2022-08-03T11:31:51.936Z,31.17
2022-08-03T11:36:02.580Z,29.78
2022-08-03T11:40:08.128Z,28.94
2022-08-03T11:44:41.733Z,31.32
2022-08-03T11:48:52.728Z,28.43
2022-08-03T11:52:56.490Z,28.67
2022-08-03T11:57:00.252Z,28.74
2022-08-03T12:01:19.998Z,29.58
2022-08-03T12:05:51.193Z,29.86
2022-08-03T12:10:11.345Z,30.12
2022-08-03T12:14:48.889Z,29.89
2022-08-03T12:18:43.809Z,28.54
2022-08-03T12:22:47.342Z,28.48
2022-08-03T12:26:59.555Z,30.20
2022-08-03T12:31:06.898Z,29.55
2022-08-03T12:35:12.494Z,29.45
2022-08-03T12:39:15.992Z,27.99
2022-08-03T12:43:20.054Z,28.41
2022-08-03T12:47:23.480Z,27.25
2022-08-03T12:51:28.865Z,29.50
2022-08-03T12:55:57.229Z,28.87
2022-08-03T13:00:21.228Z,29.43
2022-08-03T13:04:35.336Z,29.24
2022-08-03T13:08:39.955Z,29.75
2022-08-03T13:12:50.075Z,29.33
2022-08-03T13:16:54.021Z,30.10
2022-08-03T13:20:57.503Z,28.36
2022-08-03T13:25:03.651Z,28.79
2022-08-03T13:29:07.914Z,28.52
2022-08-03T13:33:11.393Z,27.54
2022-08-03T13:37:15.223Z,28.02
2022-08-03T13:41:20.105Z,27.91
2022-08-03T13:45:34.246Z,27.88
2022-08-03T13:49:37.863Z,28.27
2022-08-03T13:53:41.388Z,28.27
2022-08-03T13:58:02.973Z,28.64
2022-08-03T14:02:10.273Z,27.93
2022-08-03T14:06:13.629Z,28.11
2022-08-03T14:10:18.158Z,28.31
2022-08-03T14:14:23.509Z,28.35
2022-08-03T14:18:33.869Z,26.80
2022-08-03T14:22:37.911Z,27.23
2022-08-03T14:26:41.085Z,27.51
2022-08-03T14:30:46.058Z,26.77
2022-08-03T14:34:49.480Z,26.00
2022-08-03T14:38:53.162Z,26.40
2022-08-03T14:42:59.039Z,26.73
2022-08-03T14:47:03.632Z,26.26
2022-08-03T14:51:07.690Z,25.91
2022-08-03T14:55:12.085Z,24.82
2022-08-03T14:59:15.595Z,25.56
2022-08-03T15:03:23.733Z,24.77
2022-08-03T15:07:27.195Z,24.45
2022-08-03T15:11:30.163Z,24.03
2022-08-03T15:15:33.749Z,24.31
2022-08-03T15:20:01.028Z,25.14
2022-08-03T15:24:01.856Z,23.67
2022-08-03T15:28:05.777Z,25.40
2022-08-03T15:32:09.786Z,24.04
2022-08-03T15:36:14.816Z,24.36
2022-08-03T15:40:17.957Z,24.01
2022-08-03T15:44:21.769Z,25.49
2022-08-03T15:48:26.536Z,24.92
2022-08-03T15:52:31.965Z,25.20
2022-08-03T15:56:35.129Z,23.91
2022-08-03T16:00:39.033Z,23.73
2022-08-03T16:04:42.733Z,23.43
2022-08-03T16:08:49.093Z,23.96
2022-08-03T16:12:52.940Z,22.73
2022-08-03T16:16:56.046Z,25.67
2022-08-03T16:20:59.487Z,25.19
2022-08-03T16:25:04.421Z,24.42
2022-08-03T16:29:22.629Z,25.63
2022-08-03T16:33:27.376Z,24.79
2022-08-03T16:37:39.336Z,24.74
2022-08-03T16:41:54.243Z,25.55
2022-08-03T16:46:06.269Z,25.20
2022-08-03T16:50:17.252Z,24.81
2022-08-03T16:54:23.116Z,24.98
2022-08-03T16:58:41.646Z,24.79
2022-08-03T17:02:49.076Z,24.50
2022-08-03T17:06:52.358Z,25.19
2022-08-03T17:10:56.605Z,25.74
2022-08-03T17:15:01.425Z,25.63
2022-08-03T17:19:08.009Z,26.02
2022-08-03T17:23:34.695Z,26.15
2022-08-03T17:28:49.199Z,27.00
2022-08-03T17:32:09.766Z,26.96
2022-08-03T17:36:20.550Z,28.23
2022-08-03T17:49:24.799Z,29.05
2022-08-03T17:53:30.823Z,29.05
2022-08-03T17:58:02.195Z,29.59
2022-08-03T18:02:30.809Z,29.22
2022-08-03T18:06:55.571Z,30.19
2022-08-03T18:11:09.651Z,29.76
2022-08-03T18:15:25.564Z,30.82
2022-08-03T18:20:01.034Z,31.96
2022-08-03T18:23:56.679Z,32.25
2022-08-03T18:28:06.428Z,32.11
2022-08-03T18:32:16.999Z,32.79
2022-08-03T18:36:29.981Z,33.01
2022-08-03T18:40:35.439Z,33.51
2022-08-03T18:44:52.984Z,35.28
2022-08-03T18:49:08.290Z,33.54
2022-08-03T18:53:19.563Z,33.48
2022-08-03T18:57:41.859Z,33.70
2022-08-03T19:01:58.200Z,36.28
2022-08-03T19:06:13.362Z,36.39
2022-08-03T19:10:20.741Z,37.15
2022-08-03T19:14:35.902Z,36.01
2022-08-03T19:18:49.701Z,37.02
2022-08-03T19:22:53.961Z,37.46
2022-08-03T19:26:57.795Z,38.02
2022-08-03T19:31:06.245Z,37.68
2022-08-03T19:35:18.817Z,38.69
2022-08-03T19:39:22.212Z,35.42
2022-08-03T19:43:33.126Z,38.19
2022-08-03T19:47:59.989Z,38.30
2022-08-03T19:52:04.853Z,39.16
2022-08-03T19:56:08.303Z,39.77
2022-08-03T20:00:13.914Z,39.25
2022-08-03T20:04:20.991Z,40.13
2022-08-03T20:08:24.537Z,40.13
2022-08-03T20:12:29.195Z,40.31
2022-08-03T20:16:32.762Z,41.11
2022-08-03T20:20:39.263Z,40.66
2022-08-03T20:24:50.750Z,40.36
2022-08-03T20:28:59.417Z,41.22
2022-08-03T20:33:18.779Z,41.27
2022-08-03T20:37:23.791Z,41.32
2022-08-03T20:41:27.571Z,41.35
2022-08-03T20:45:58.388Z,41.49
2022-08-03T20:49:54.819Z,41.42
2022-08-03T20:54:03.043Z,41.43
2022-08-03T20:58:08.582Z,41.31
2022-08-03T21:02:13.344Z,41.81
2022-08-03T21:06:27.925Z,41.34
2022-08-03T21:10:37.933Z,41.35
2022-08-03T21:14:51.915Z,41.73
2022-08-03T21:18:59.876Z,42.21
2022-08-03T21:23:03.872Z,42.28
2022-08-03T21:27:09.212Z,42.43
2022-08-03T21:31:13.369Z,42.88
2022-08-03T21:35:18.609Z,43.04
2022-08-03T21:39:21.727Z,42.72
2022-08-03T21:43:27.046Z,43.00
2022-08-03T21:47:30.662Z,43.35
2022-08-03T21:51:36.662Z,43.76
2022-08-03T21:55:41.576Z,43.69
2022-08-03T21:59:53.111Z,43.22
2022-08-03T22:03:58.518Z,44.10
2022-08-03T22:08:02.213Z,43.98
2022-08-03T22:12:06.911Z,43.86
2022-08-03T22:16:13.312Z,44.03
2022-08-03T22:20:16.670Z,44.52
2022-08-03T22:24:23.943Z,45.37
2022-08-03T22:28:31.703Z,44.45
2022-08-03T22:32:38.392Z,45.96
2022-08-03T22:36:43.018Z,46.26
2022-08-03T22:40:49.452Z,46.19
2022-08-03T22:44:55.413Z,46.80
2022-08-03T22:49:01.541Z,46.26
2022-08-03T22:53:05.410Z,46.23
2022-08-03T22:57:09.323Z,46.89
2022-08-03T23:01:14.665Z,46.46
2022-08-03T23:06:00.839Z,46.22
2022-08-03T23:09:50.826Z,46.78
2022-08-03T23:13:55.186Z,47.32
2022-08-03T23:17:59.414Z,47.55
2022-08-03T23:22:05.727Z,47.34
2022-08-03T23:26:09.545Z,48.34
2022-08-03T23:30:15.410Z,47.42
2022-08-03T23:34:38.780Z,47.96
2022-08-03T23:38:44.657Z,48.10
2022-08-03T23:42:50.525Z,48.43
2022-08-03T23:46:54.287Z,48.50
2022-08-03T23:51:01.641Z,48.67
2022-08-03T23:55:22.216Z,47.42
2022-08-03T23:59:33.332Z,49.02
